createdAt,value
2022-10-03T00:05:40.932Z,2.10
2022-10-03T00:08:19.152Z,2.00
2022-10-03T00:10:57.736Z,1.90
2022-10-03T00:13:34.644Z,1.83
2022-10-03T00:16:14.158Z,2.00
2022-10-03T00:18:47.883Z,2.33
2022-10-03T00:21:35.574Z,2.20
2022-10-03T00:24:08.192Z,2.00
2022-10-03T00:26:40.971Z,1.90
2022-10-03T00:29:38.213Z,2.20
2022-10-03T00:32:10.178Z,2.00
2022-10-03T00:35:08.243Z,2.07
2022-10-03T00:37:45.972Z,2.03
2022-10-03T00:40:47.208Z,2.00
2022-10-03T00:43:38.654Z,2.43
2022-10-03T00:46:16.287Z,2.17
2022-10-03T00:49:03.053Z,2.37
2022-10-03T00:51:53.515Z,2.27
2022-10-03T00:54:42.775Z,2.00
2022-10-03T00:57:17.742Z,1.73
2022-10-03T01:00:06.759Z,2.03
2022-10-03T01:02:43.161Z,2.07
2022-10-03T01:05:21.463Z,1.67
2022-10-03T01:08:20.356Z,1.90
2022-10-03T01:10:58.862Z,1.80
2022-10-03T01:13:42.741Z,1.93
2022-10-03T01:16:21.507Z,1.87
2022-10-03T01:18:55.486Z,2.00
2022-10-03T01:21:34.089Z,1.80
2022-10-03T01:24:34.421Z,1.83
2022-10-03T01:27:18.294Z,1.83
2022-10-03T01:30:07.652Z,2.03
2022-10-03T04:45:40.485Z,2.47
2022-10-03T04:48:27.806Z,2.17
2022-10-03T05:00:33.548Z,2.17
2022-10-03T05:03:15.666Z,2.10
2022-10-03T05:09:17.898Z,2.27
2022-10-03T05:11:55.974Z,2.63
2022-10-03T05:15:07.255Z,2.47
2022-10-03T05:18:12.918Z,2.20
2022-10-03T05:21:21.667Z,2.57
2022-10-03T05:36:28.204Z,2.53
2022-10-03T05:39:19.788Z,2.53
2022-10-03T05:42:21.431Z,2.13
2022-10-03T05:45:45.403Z,2.40
2022-10-03T05:48:23.045Z,2.30
2022-10-03T05:51:23.727Z,2.83
2022-10-03T05:54:29.130Z,2.43
2022-10-03T05:57:17.759Z,2.60
2022-10-03T06:09:24.647Z,3.00
2022-10-03T06:12:00.835Z,2.70
2022-10-03T06:14:54.347Z,3.10
2022-10-03T06:17:52.023Z,2.77
2022-10-03T06:20:41.580Z,2.70
2022-10-03T06:23:31.149Z,2.87
2022-10-03T06:26:04.257Z,2.77
2022-10-03T06:28:57.951Z,3.07
2022-10-03T06:31:50.781Z,3.67
2022-10-03T06:34:31.947Z,4.20
2022-10-03T06:37:05.451Z,3.50
2022-10-03T06:39:57.596Z,3.50
2022-10-03T06:42:38.767Z,3.80
2022-10-03T06:45:21.577Z,3.37
2022-10-03T06:47:58.918Z,3.57
2022-10-03T06:50:31.415Z,3.00
2022-10-03T06:53:10.375Z,3.40
2022-10-03T06:55:57.663Z,3.30
2022-10-03T06:58:46.889Z,3.40
2022-10-03T07:01:26.743Z,2.80
2022-10-03T07:04:10.975Z,2.70
2022-10-03T07:06:57.286Z,2.83
2022-10-03T07:09:34.381Z,3.03
2022-10-03T07:12:13.442Z,2.90
2022-10-03T07:14:51.827Z,2.50
2022-10-03T07:17:32.285Z,2.83
2022-10-03T07:20:21.383Z,2.67
2022-10-03T07:22:55.094Z,3.23
2022-10-03T07:25:47.224Z,3.30
2022-10-03T07:28:24.666Z,3.00
2022-10-03T07:30:56.534Z,3.00
2022-10-03T07:33:42.904Z,3.30
2022-10-03T07:36:46.627Z,3.70
2022-10-03T07:39:22.485Z,3.37
2022-10-03T07:42:07.237Z,2.87
2022-10-03T07:44:43.688Z,3.60
2022-10-03T07:47:34.738Z,3.63
2022-10-03T07:50:24.528Z,3.50
2022-10-03T07:53:10.594Z,3.10
2022-10-03T07:55:45.369Z,3.20
2022-10-03T07:58:22.422Z,3.67
2022-10-03T08:00:58.690Z,3.43
2022-10-03T08:03:54.781Z,3.33
2022-10-03T08:06:30.172Z,3.13
2022-10-03T08:09:10.669Z,3.50
2022-10-03T08:11:53.732Z,3.63
2022-10-03T08:14:25.632Z,3.30
2022-10-03T08:17:02.750Z,3.23
2022-10-03T08:19:37.694Z,3.43
2022-10-03T08:22:08.165Z,3.30
2022-10-03T08:24:45.369Z,3.17
2022-10-03T08:27:26.901Z,3.97
2022-10-03T08:30:16.172Z,3.60
2022-10-03T08:32:49.923Z,3.67
2022-10-03T08:35:37.519Z,3.93
2022-10-03T08:38:12.841Z,4.03
2022-10-03T08:40:56.570Z,3.43
2022-10-03T08:43:38.715Z,3.83
2022-10-03T08:46:09.660Z,3.63
2022-10-03T08:48:44.955Z,3.13
2022-10-03T08:51:36.359Z,3.47
2022-10-03T08:54:22.711Z,3.43
2022-10-03T08:56:57.915Z,3.50
2022-10-03T08:59:41.006Z,3.20
2022-10-03T09:02:24.325Z,3.00
2022-10-03T09:04:59.536Z,4.10
2022-10-03T09:07:31.360Z,3.10
2022-10-03T09:10:26.959Z,3.17
2022-10-03T09:13:15.337Z,3.47
2022-10-03T09:16:02.874Z,2.97
2022-10-03T09:18:46.238Z,2.90
2022-10-03T09:21:26.978Z,2.43
2022-10-03T09:24:08.502Z,2.60
2022-10-03T09:26:43.636Z,2.30
2022-10-03T09:29:25.190Z,2.67
2022-10-03T09:32:23.812Z,2.90
2022-10-03T09:35:12.769Z,3.03
2022-10-03T09:37:46.494Z,2.90
2022-10-03T09:40:32.555Z,3.57
2022-10-03T09:43:19.473Z,3.47
2022-10-03T09:45:58.818Z,3.83
2022-10-03T09:48:51.647Z,3.63
2022-10-03T09:51:25.171Z,2.77
2022-10-03T09:54:12.080Z,3.70
2022-10-03T09:57:07.387Z,4.53
2022-10-03T09:59:58.097Z,3.23
2022-10-03T10:02:41.824Z,3.60
2022-10-03T10:05:27.799Z,3.73
2022-10-03T10:08:16.993Z,3.50
2022-10-03T10:11:05.607Z,4.07
2022-10-03T10:14:08.645Z,4.20
2022-10-03T10:16:48.068Z,4.57
2022-10-03T10:19:39.577Z,4.17
2022-10-03T10:22:38.970Z,4.30
2022-10-03T10:25:25.363Z,3.13
2022-10-03T10:28:17.677Z,3.27
2022-10-03T10:31:04.641Z,3.13
2022-10-03T10:33:51.103Z,2.73
2022-10-03T10:36:44.878Z,4.90
2022-10-03T10:39:29.293Z,4.17
2022-10-03T10:42:18.486Z,3.50
2022-10-03T10:45:05.304Z,3.77
2022-10-03T10:48:00.949Z,3.80
2022-10-03T10:50:48.714Z,3.87
2022-10-03T10:53:37.986Z,3.77
2022-10-03T10:56:21.223Z,3.20
2022-10-03T10:59:04.457Z,3.63
2022-10-03T11:01:47.696Z,3.63
2022-10-03T11:04:46.281Z,3.53
2022-10-03T11:07:22.653Z,3.30
2022-10-03T11:10:14.754Z,3.37
2022-10-03T11:12:58.838Z,3.17
2022-10-03T11:15:47.629Z,3.47
2022-10-03T11:18:48.503Z,3.30
2022-10-03T11:21:28.412Z,3.43
2022-10-03T11:24:20.775Z,3.40
2022-10-03T11:27:03.979Z,3.70
2022-10-03T11:29:52.099Z,3.53
2022-10-03T11:32:39.127Z,3.83
2022-10-03T11:35:22.411Z,3.93
2022-10-03T11:37:52.454Z,3.73
2022-10-03T11:40:28.221Z,3.80
2022-10-03T11:42:58.696Z,3.87
2022-10-03T11:45:28.920Z,3.83
2022-10-03T11:47:58.893Z,4.17
2022-10-03T11:50:32.554Z,4.03
2022-10-03T11:53:08.024Z,4.20
2022-10-03T11:55:37.459Z,3.90
2022-10-03T11:58:11.168Z,3.70
2022-10-03T12:00:39.613Z,3.70
2022-10-03T12:03:14.584Z,4.27
2022-10-03T12:05:49.035Z,4.27
2022-10-03T12:08:40.079Z,3.30
2022-10-03T12:11:14.042Z,3.57
2022-10-03T12:13:44.449Z,3.43
2022-10-03T12:16:14.990Z,4.07
2022-10-03T12:18:54.011Z,3.63
2022-10-03T12:21:24.332Z,4.07
2022-10-03T12:23:58.783Z,3.10
2022-10-03T12:26:29.453Z,4.30
2022-10-03T12:28:58.891Z,3.77
2022-10-03T12:31:27.985Z,3.80
2022-10-03T12:33:56.962Z,3.60
2022-10-03T12:36:27.735Z,3.80
2022-10-03T12:39:03.854Z,4.27
2022-10-03T12:41:50.321Z,3.83
2022-10-03T12:44:21.558Z,2.80
2022-10-03T12:46:57.790Z,3.03
2022-10-03T12:49:31.101Z,2.87
2022-10-03T12:52:00.115Z,2.97
2022-10-03T12:54:45.509Z,2.97
2022-10-03T12:57:21.107Z,2.50
2022-10-03T12:59:50.062Z,3.10
2022-10-03T13:02:22.546Z,3.13
2022-10-03T13:04:54.626Z,2.77
2022-10-03T13:07:26.345Z,2.80
2022-10-03T13:10:00.796Z,2.93
2022-10-03T13:12:34.290Z,2.93
2022-10-03T13:15:20.391Z,2.27
2022-10-03T13:17:50.456Z,3.20
2022-10-03T13:20:20.842Z,3.17
2022-10-03T13:22:55.278Z,3.13
2022-10-03T13:25:25.893Z,2.90
2022-10-03T13:27:55.531Z,2.63
2022-10-03T13:30:24.233Z,3.90
2022-10-03T13:32:53.747Z,3.77
2022-10-03T13:35:48.053Z,3.17
2022-10-03T13:38:23.724Z,3.03
2022-10-03T13:40:56.836Z,3.23
2022-10-03T13:43:26.901Z,3.10
2022-10-03T13:45:57.567Z,3.10
2022-10-03T13:48:27.500Z,3.50
2022-10-03T13:50:58.816Z,3.10
2022-10-03T13:53:34.317Z,3.13
2022-10-03T13:56:04.811Z,2.83
2022-10-03T13:58:36.194Z,3.30
2022-10-03T14:01:11.493Z,3.10
2022-10-03T14:03:42.338Z,2.93
2022-10-03T14:06:15.359Z,3.43
2022-10-03T14:09:01.539Z,2.97
2022-10-03T14:11:34.609Z,2.80
2022-10-03T14:14:21.571Z,2.70
2022-10-03T14:16:50.327Z,2.57
2022-10-03T14:39:26.007Z,2.67
2022-10-03T14:42:18.402Z,2.17
2022-10-03T14:44:48.966Z,2.13
2022-10-03T14:47:18.576Z,2.40
2022-10-03T14:49:56.376Z,2.50
2022-10-03T14:52:28.489Z,2.40
2022-10-03T14:54:57.283Z,3.10
2022-10-03T14:57:39.664Z,2.60
2022-10-03T15:00:26.141Z,2.10
2022-10-03T15:02:54.784Z,2.73
2022-10-03T15:05:24.265Z,2.40
2022-10-03T15:07:53.402Z,1.87
2022-10-03T15:10:22.814Z,2.43
2022-10-03T15:12:51.460Z,3.37
2022-10-03T15:15:20.491Z,3.50
2022-10-03T15:17:50.897Z,2.87
2022-10-03T15:20:19.584Z,2.77
2022-10-03T15:22:49.182Z,2.67
2022-10-03T15:25:18.276Z,2.20
2022-10-03T15:27:46.941Z,2.97
2022-10-03T15:30:21.005Z,2.80
2022-10-03T15:32:50.857Z,3.10
2022-10-03T15:35:19.939Z,2.63
2022-10-03T15:37:48.782Z,3.50
2022-10-03T15:40:23.725Z,2.50
2022-10-03T15:42:53.820Z,2.27
2022-10-03T15:45:25.274Z,2.67
2022-10-03T15:47:54.935Z,2.40
2022-10-03T15:50:24.307Z,2.47
2022-10-03T15:52:53.436Z,2.50
2022-10-03T15:55:24.190Z,3.13
2022-10-03T15:57:53.004Z,2.10
2022-10-03T16:00:22.500Z,2.73
2022-10-03T16:02:53.912Z,2.53
2022-10-03T16:05:24.963Z,2.03
2022-10-03T16:07:56.711Z,2.43
2022-10-03T16:10:25.824Z,2.30
2022-10-03T16:12:58.565Z,2.10
2022-10-03T16:15:28.555Z,2.13
2022-10-03T16:17:57.358Z,2.23
2022-10-03T16:20:29.449Z,3.03
2022-10-03T16:22:58.333Z,1.93
2022-10-03T16:25:26.971Z,2.50
2022-10-03T16:27:56.428Z,1.90
2022-10-03T16:30:25.079Z,2.53
2022-10-03T16:32:56.711Z,2.23
2022-10-03T16:35:39.865Z,2.20
2022-10-03T16:38:10.050Z,2.67
2022-10-03T16:40:38.947Z,2.43
2022-10-03T16:43:11.731Z,2.43
2022-10-03T16:45:41.927Z,2.27
2022-10-03T16:48:31.380Z,2.33
2022-10-03T16:51:01.225Z,2.67
2022-10-03T16:53:29.654Z,2.40
2022-10-03T16:56:00.463Z,2.60
2022-10-03T16:58:29.576Z,2.60
2022-10-03T17:01:25.480Z,3.13
2022-10-03T17:03:48.964Z,3.13
2022-10-03T17:06:20.662Z,2.50
2022-10-03T17:08:53.421Z,2.73
2022-10-03T17:11:27.477Z,2.63
2022-10-03T17:13:56.306Z,3.00
2022-10-03T17:16:28.030Z,3.30
2022-10-03T17:19:02.241Z,3.77
2022-10-03T17:21:32.111Z,3.57
2022-10-03T17:24:02.828Z,3.37
2022-10-03T17:26:33.293Z,3.60
2022-10-03T17:29:04.554Z,3.90
2022-10-03T17:31:34.273Z,3.83
2022-10-03T17:34:08.846Z,3.67
2022-10-03T17:36:51.981Z,3.63
2022-10-03T17:39:25.015Z,3.53
2022-10-03T17:41:54.144Z,3.60
2022-10-03T17:44:26.319Z,3.83
2022-10-03T17:46:58.147Z,3.30
2022-10-03T17:49:29.056Z,3.20
2022-10-03T17:51:58.732Z,3.40
2022-10-03T17:54:27.858Z,3.80
2022-10-03T17:56:56.825Z,4.37
2022-10-03T17:59:25.370Z,4.47
2022-10-03T18:01:54.083Z,3.50
2022-10-03T18:04:22.839Z,4.40
2022-10-03T18:06:51.941Z,4.30
2022-10-03T18:09:24.362Z,3.97
2022-10-03T18:11:53.194Z,4.17
2022-10-03T18:14:24.234Z,4.30
2022-10-03T18:17:00.542Z,4.20
2022-10-03T18:19:32.602Z,4.63
2022-10-03T18:22:02.697Z,4.27
2022-10-03T18:24:39.760Z,4.60
2022-10-03T18:27:11.236Z,4.33
2022-10-03T18:29:40.740Z,4.17
2022-10-03T18:32:13.776Z,4.73
2022-10-03T18:34:44.646Z,4.97
2022-10-03T18:37:39.445Z,4.57
2022-10-03T18:40:14.112Z,4.43
2022-10-03T18:42:42.443Z,4.63
2022-10-03T18:45:17.981Z,4.00
2022-10-03T18:47:48.353Z,4.67
2022-10-03T18:50:18.163Z,4.90
2022-10-03T18:52:48.979Z,5.13
2022-10-03T18:55:19.442Z,5.00
2022-10-03T18:57:49.415Z,5.30
2022-10-03T19:00:18.975Z,5.10
2022-10-03T19:02:49.673Z,4.77
2022-10-03T19:05:18.331Z,5.50
2022-10-03T19:07:47.664Z,5.67
2022-10-03T19:10:34.917Z,5.00
2022-10-03T19:13:05.511Z,4.73
2022-10-03T19:15:38.994Z,4.53
2022-10-03T19:18:09.579Z,5.17
2022-10-03T19:20:38.888Z,4.90
2022-10-03T19:23:08.024Z,4.90
2022-10-03T19:25:38.555Z,4.57
2022-10-03T19:28:08.561Z,5.03
2022-10-03T19:30:37.110Z,5.10
2022-10-03T19:33:06.039Z,4.30
2022-10-03T19:35:35.888Z,4.17
2022-10-03T19:38:04.422Z,4.77
2022-10-03T19:40:35.618Z,4.27
2022-10-03T19:43:22.597Z,4.77
2022-10-03T19:45:54.020Z,4.43
2022-10-03T19:48:22.304Z,4.40
2022-10-03T19:50:50.700Z,4.50
2022-10-03T19:53:19.125Z,4.40
2022-10-03T19:55:47.645Z,5.20
2022-10-03T19:58:19.882Z,5.57
2022-10-03T20:00:52.552Z,5.60
2022-10-03T20:03:24.192Z,5.43
2022-10-03T20:05:55.451Z,5.53
2022-10-03T20:08:24.404Z,6.07
2022-10-03T20:10:56.456Z,5.33
2022-10-03T20:13:24.900Z,5.57
2022-10-03T20:15:54.790Z,5.43
2022-10-03T20:18:24.154Z,5.47
2022-10-03T20:20:53.011Z,5.43
2022-10-03T20:23:21.740Z,5.40
2022-10-03T20:25:55.206Z,5.20
2022-10-03T20:28:24.570Z,5.23
2022-10-03T20:30:53.117Z,6.00
2022-10-03T20:33:23.472Z,5.90
2022-10-03T20:35:53.867Z,6.10
2022-10-03T20:38:24.794Z,6.20
2022-10-03T20:40:55.088Z,5.17
2022-10-03T20:43:29.651Z,5.20
2022-10-03T20:46:04.696Z,6.07
2022-10-03T20:48:34.824Z,5.50
2022-10-03T20:51:03.165Z,5.50
2022-10-03T20:53:31.776Z,5.77
2022-10-03T20:56:01.878Z,5.70
2022-10-03T20:58:30.374Z,5.80
2022-10-03T21:01:00.068Z,5.20
2022-10-03T21:03:29.352Z,5.13
2022-10-03T21:05:59.428Z,5.23
2022-10-03T21:08:28.024Z,4.97
2022-10-03T21:10:56.978Z,4.60
2022-10-03T21:13:27.108Z,4.60
2022-10-03T21:15:57.257Z,5.17
2022-10-03T21:18:26.134Z,4.97
2022-10-03T21:21:00.946Z,4.90
2022-10-03T21:23:31.958Z,4.80
2022-10-03T21:26:01.521Z,4.80
2022-10-03T21:28:31.574Z,5.03
2022-10-03T21:31:03.427Z,5.30
2022-10-03T21:33:32.543Z,4.93
2022-10-03T21:36:09.942Z,5.23
2022-10-03T21:38:39.491Z,5.03
2022-10-03T21:41:24.330Z,4.67
2022-10-03T21:43:53.398Z,5.03
2022-10-03T21:46:23.311Z,4.67
2022-10-03T21:48:55.458Z,5.10
2022-10-03T21:51:27.603Z,4.70
2022-10-03T21:53:58.751Z,4.97
2022-10-03T21:56:40.487Z,4.37
2022-10-03T21:59:13.381Z,4.67
2022-10-03T22:01:43.300Z,5.13
2022-10-03T22:04:15.328Z,5.33
2022-10-03T22:06:48.296Z,5.63
2022-10-03T22:09:16.817Z,4.97
2022-10-03T22:11:46.065Z,5.60
2022-10-03T22:14:18.206Z,4.97
2022-10-03T22:16:47.457Z,5.20
2022-10-03T22:19:20.429Z,4.43
2022-10-03T22:21:54.306Z,4.23
2022-10-03T22:24:25.596Z,4.27
2022-10-03T22:26:54.760Z,4.80
2022-10-03T22:29:24.483Z,4.90
2022-10-03T22:31:55.195Z,4.87
2022-10-03T22:34:27.376Z,5.30
2022-10-03T22:36:58.895Z,5.20
2022-10-03T22:39:27.229Z,5.10
2022-10-03T22:41:56.081Z,4.97
2022-10-03T22:44:26.057Z,4.83
2022-10-03T22:46:54.998Z,4.67
2022-10-03T22:49:24.361Z,4.70
2022-10-03T22:51:53.184Z,4.63
2022-10-03T22:54:22.837Z,4.93
2022-10-03T22:56:53.655Z,5.27
2022-10-03T22:59:22.454Z,4.60
2022-10-03T23:01:51.978Z,5.03
2022-10-03T23:04:23.225Z,4.70
2022-10-03T23:06:57.098Z,4.87
2022-10-03T23:09:27.640Z,5.20
2022-10-03T23:11:55.895Z,5.73
2022-10-03T23:14:24.759Z,5.90
2022-10-03T23:16:53.898Z,5.80
2022-10-03T23:19:31.611Z,5.53
2022-10-03T23:22:00.510Z,5.90
2022-10-03T23:24:31.069Z,4.90
2022-10-03T23:27:17.355Z,5.60
2022-10-03T23:29:46.878Z,5.23
2022-10-03T23:32:15.140Z,6.53
2022-10-03T23:35:04.448Z,6.33
2022-10-03T23:37:39.906Z,6.33
2022-10-03T23:40:28.893Z,7.13
2022-10-03T23:43:01.874Z,6.03
2022-10-03T23:45:30.257Z,6.23
2022-10-03T23:47:59.079Z,6.80
2022-10-03T23:50:28.767Z,6.50
2022-10-03T23:52:57.277Z,6.37
2022-10-03T23:55:26.227Z,6.87
2022-10-03T23:57:54.589Z,6.83
